sensor_id;sensor_type;location;lat;lon;timestamp;P1;durP1;ratioP1;P2;durP2;ratioP2
82705;SDS011;72428;41.978;21.464;2024-03-23T00:55:13;73.65;;;40.92;;
82705;SDS011;72428;41.978;21.464;2024-03-23T00:57:39;80.03;;;41.20;;
82705;SDS011;72428;41.978;21.464;2024-03-23T01:00:06;78.90;;;40.55;;
82705;SDS011;72428;41.978;21.464;2024-03-23T01:02:35;70.10;;;39.25;;
82705;SDS011;72428;41.978;21.464;2024-03-23T01:05:01;64.78;;;36.10;;
82705;SDS011;72428;41.978;21.464;2024-03-23T01:07:27;71.63;;;36.67;;
82705;SDS011;72428;41.978;21.464;2024-03-23T01:09:53;67.80;;;38.35;;
82705;SDS011;72428;41.978;21.464;2024-03-23T01:12:19;62.13;;;38.35;;
82705;SDS011;72428;41.978;21.464;2024-03-23T01:14:45;61.67;;;35.85;;
82705;SDS011;72428;41.978;21.464;2024-03-23T01:17:11;60.63;;;36.20;;
82705;SDS011;72428;41.978;21.464;2024-03-23T01:19:37;55.38;;;33.00;;
82705;SDS011;72428;41.978;21.464;2024-03-23T01:22:04;56.10;;;31.23;;
82705;SDS011;72428;41.978;21.464;2024-03-23T01:24:30;65.65;;;36.53;;
82705;SDS011;72428;41.978;21.464;2024-03-23T01:26:56;56.90;;;31.05;;
82705;SDS011;72428;41.978;21.464;2024-03-23T01:29:22;62.58;;;31.65;;
82705;SDS011;72428;41.978;21.464;2024-03-23T01:31:48;53.50;;;31.80;;
82705;SDS011;72428;41.978;21.464;2024-03-23T01:34:14;49.78;;;29.23;;
82705;SDS011;72428;41.978;21.464;2024-03-23T01:36:41;54.83;;;30.70;;
82705;SDS011;72428;41.978;21.464;2024-03-23T01:39:07;51.72;;;29.73;;
82705;SDS011;72428;41.978;21.464;2024-03-23T01:41:34;46.50;;;26.10;;
82705;SDS011;72428;41.978;21.464;2024-03-23T01:44:04;42.45;;;27.13;;
82705;SDS011;72428;41.978;21.464;2024-03-23T01:46:31;44.65;;;25.83;;
82705;SDS011;72428;41.978;21.464;2024-03-23T01:48:58;47.97;;;28.73;;
82705;SDS011;72428;41.978;21.464;2024-03-23T01:51:24;40.13;;;24.67;;
82705;SDS011;72428;41.978;21.464;2024-03-23T01:53:50;38.45;;;22.20;;
82705;SDS011;72428;41.978;21.464;2024-03-23T01:56:16;42.25;;;23.33;;
82705;SDS011;72428;41.978;21.464;2024-03-23T01:58:42;41.13;;;25.38;;
82705;SDS011;72428;41.978;21.464;2024-03-23T02:01:08;43.45;;;25.98;;
82705;SDS011;72428;41.978;21.464;2024-03-23T02:03:34;38.67;;;22.50;;
82705;SDS011;72428;41.978;21.464;2024-03-23T02:06:00;39.67;;;24.40;;
82705;SDS011;72428;41.978;21.464;2024-03-23T02:08:27;42.72;;;22.95;;
82705;SDS011;72428;41.978;21.464;2024-03-23T02:10:53;40.55;;;24.33;;
82705;SDS011;72428;41.978;21.464;2024-03-23T02:13:19;36.70;;;19.83;;
82705;SDS011;72428;41.978;21.464;2024-03-23T02:15:45;39.10;;;22.38;;
82705;SDS011;72428;41.978;21.464;2024-03-23T02:18:11;37.47;;;25.17;;
82705;SDS011;72428;41.978;21.464;2024-03-23T02:20:37;38.75;;;21.63;;
82705;SDS011;72428;41.978;21.464;2024-03-23T02:23:04;37.17;;;22.05;;
82705;SDS011;72428;41.978;21.464;2024-03-23T02:25:33;36.53;;;22.08;;
82705;SDS011;72428;41.978;21.464;2024-03-23T02:27:59;41.97;;;26.13;;
82705;SDS011;72428;41.978;21.464;2024-03-23T02:30:26;32.33;;;21.65;;
82705;SDS011;72428;41.978;21.464;2024-03-23T02:32:52;34.60;;;21.27;;
82705;SDS011;72428;41.978;21.464;2024-03-23T02:35:18;34.20;;;22.48;;
82705;SDS011;72428;41.978;21.464;2024-03-23T02:37:45;37.88;;;23.83;;
82705;SDS011;72428;41.978;21.464;2024-03-23T02:40:13;37.47;;;26.85;;
82705;SDS011;72428;41.978;21.464;2024-03-23T02:42:39;35.85;;;22.00;;
82705;SDS011;72428;41.978;21.464;2024-03-23T02:45:05;37.70;;;21.85;;
82705;SDS011;72428;41.978;21.464;2024-03-23T02:47:32;35.78;;;23.80;;
82705;SDS011;72428;41.978;21.464;2024-03-23T02:49:58;34.83;;;20.60;;
82705;SDS011;72428;41.978;21.464;2024-03-23T02:52:24;36.17;;;23.67;;
82705;SDS011;72428;41.978;21.464;2024-03-23T02:54:50;36.92;;;21.05;;
82705;SDS011;72428;41.978;21.464;2024-03-23T02:57:16;38.80;;;23.40;;
82705;SDS011;72428;41.978;21.464;2024-03-23T02:59:42;37.45;;;21.20;;
82705;SDS011;72428;41.978;21.464;2024-03-23T03:02:09;35.40;;;20.75;;
82705;SDS011;72428;41.978;21.464;2024-03-23T03:04:35;33.88;;;20.58;;
82705;SDS011;72428;41.978;21.464;2024-03-23T03:07:01;33.47;;;20.20;;
82705;SDS011;72428;41.978;21.464;2024-03-23T03:09:27;34.78;;;21.10;;
82705;SDS011;72428;41.978;21.464;2024-03-23T03:11:53;33.40;;;21.48;;
82705;SDS011;72428;41.978;21.464;2024-03-23T03:14:19;29.67;;;22.30;;
82705;SDS011;72428;41.978;21.464;2024-03-23T03:16:45;34.67;;;23.13;;
82705;SDS011;72428;41.978;21.464;2024-03-23T03:19:11;33.38;;;24.00;;
82705;SDS011;72428;41.978;21.464;2024-03-23T03:21:37;34.42;;;21.73;;
82705;SDS011;72428;41.978;21.464;2024-03-23T03:24:05;33.40;;;21.15;;
82705;SDS011;72428;41.978;21.464;2024-03-23T03:26:31;32.80;;;18.38;;
82705;SDS011;72428;41.978;21.464;2024-03-23T03:28:57;35.40;;;19.90;;
82705;SDS011;72428;41.978;21.464;2024-03-23T03:31:24;37.50;;;20.75;;
82705;SDS011;72428;41.978;21.464;2024-03-23T03:33:50;37.35;;;20.83;;
82705;SDS011;72428;41.978;21.464;2024-03-23T03:36:16;30.92;;;19.85;;
82705;SDS011;72428;41.978;21.464;2024-03-23T03:38:42;32.38;;;21.88;;
82705;SDS011;72428;41.978;21.464;2024-03-23T03:41:08;37.40;;;19.80;;
82705;SDS011;72428;41.978;21.464;2024-03-23T03:43:34;33.08;;;19.90;;
82705;SDS011;72428;41.978;21.464;2024-03-23T03:46:00;28.92;;;18.58;;
82705;SDS011;72428;41.978;21.464;2024-03-23T03:48:27;31.50;;;19.45;;
82705;SDS011;72428;41.978;21.464;2024-03-23T03:50:54;33.05;;;20.52;;
82705;SDS011;72428;41.978;21.464;2024-03-23T03:53:20;30.42;;;19.63;;
82705;SDS011;72428;41.978;21.464;2024-03-23T03:55:46;30.92;;;19.27;;
82705;SDS011;72428;41.978;21.464;2024-03-23T03:58:12;33.00;;;19.85;;
82705;SDS011;72428;41.978;21.464;2024-03-23T04:00:39;32.30;;;18.58;;
82705;SDS011;72428;41.978;21.464;2024-03-23T04:03:05;38.20;;;21.23;;
82705;SDS011;72428;41.978;21.464;2024-03-23T04:05:31;31.50;;;19.20;;
82705;SDS011;72428;41.978;21.464;2024-03-23T04:07:57;33.45;;;20.23;;
82705;SDS011;72428;41.978;21.464;2024-03-23T04:10:23;34.35;;;19.20;;
82705;SDS011;72428;41.978;21.464;2024-03-23T04:12:50;34.80;;;22.75;;
82705;SDS011;72428;41.978;21.464;2024-03-23T04:15:16;34.25;;;21.17;;
82705;SDS011;72428;41.978;21.464;2024-03-23T04:17:42;32.40;;;21.60;;
82705;SDS011;72428;41.978;21.464;2024-03-23T04:20:09;35.05;;;18.85;;
82705;SDS011;72428;41.978;21.464;2024-03-23T04:22:39;34.30;;;22.30;;
82705;SDS011;72428;41.978;21.464;2024-03-23T04:25:05;41.00;;;23.52;;
82705;SDS011;72428;41.978;21.464;2024-03-23T04:27:35;40.50;;;21.60;;
82705;SDS011;72428;41.978;21.464;2024-03-23T04:30:01;36.33;;;20.90;;
82705;SDS011;72428;41.978;21.464;2024-03-23T04:32:28;38.13;;;21.67;;
82705;SDS011;72428;41.978;21.464;2024-03-23T04:34:54;38.40;;;22.02;;
82705;SDS011;72428;41.978;21.464;2024-03-23T04:37:21;38.08;;;21.02;;
82705;SDS011;72428;41.978;21.464;2024-03-23T04:39:47;35.83;;;21.88;;
82705;SDS011;72428;41.978;21.464;2024-03-23T04:42:16;36.22;;;22.42;;
82705;SDS011;72428;41.978;21.464;2024-03-23T04:44:43;38.60;;;24.85;;
82705;SDS011;72428;41.978;21.464;2024-03-23T04:47:10;40.40;;;23.58;;
82705;SDS011;72428;41.978;21.464;2024-03-23T04:49:36;40.70;;;22.23;;
82705;SDS011;72428;41.978;21.464;2024-03-23T04:52:03;39.35;;;24.38;;
82705;SDS011;72428;41.978;21.464;2024-03-23T04:54:29;50.17;;;25.98;;
82705;SDS011;72428;41.978;21.464;2024-03-23T04:56:57;48.80;;;28.50;;
82705;SDS011;72428;41.978;21.464;2024-03-23T04:59:23;46.17;;;26.63;;
82705;SDS011;72428;41.978;21.464;2024-03-23T05:01:49;43.10;;;27.65;;
82705;SDS011;72428;41.978;21.464;2024-03-23T05:04:15;41.65;;;25.48;;
82705;SDS011;72428;41.978;21.464;2024-03-23T05:06:41;43.30;;;28.27;;
82705;SDS011;72428;41.978;21.464;2024-03-23T05:09:08;42.08;;;24.95;;
82705;SDS011;72428;41.978;21.464;2024-03-23T05:11:39;42.28;;;24.80;;
82705;SDS011;72428;41.978;21.464;2024-03-23T05:14:06;49.60;;;30.35;;
82705;SDS011;72428;41.978;21.464;2024-03-23T05:16:32;52.42;;;23.95;;
82705;SDS011;72428;41.978;21.464;2024-03-23T05:18:59;39.88;;;25.50;;
82705;SDS011;72428;41.978;21.464;2024-03-23T05:21:25;38.90;;;23.25;;
82705;SDS011;72428;41.978;21.464;2024-03-23T05:23:53;42.00;;;23.40;;
82705;SDS011;72428;41.978;21.464;2024-03-23T05:26:19;39.25;;;24.67;;
82705;SDS011;72428;41.978;21.464;2024-03-23T05:28:45;40.55;;;23.77;;
82705;SDS011;72428;41.978;21.464;2024-03-23T05:31:11;49.22;;;26.38;;
82705;SDS011;72428;41.978;21.464;2024-03-23T05:33:37;41.45;;;25.88;;
82705;SDS011;72428;41.978;21.464;2024-03-23T05:36:03;37.13;;;23.25;;
82705;SDS011;72428;41.978;21.464;2024-03-23T05:38:30;37.35;;;25.15;;
82705;SDS011;72428;41.978;21.464;2024-03-23T05:40:56;35.90;;;24.85;;
82705;SDS011;72428;41.978;21.464;2024-03-23T05:43:23;37.97;;;24.52;;
82705;SDS011;72428;41.978;21.464;2024-03-23T05:45:55;41.90;;;23.45;;
82705;SDS011;72428;41.978;21.464;2024-03-23T05:48:22;38.25;;;22.08;;
82705;SDS011;72428;41.978;21.464;2024-03-23T05:50:48;44.22;;;24.67;;
82705;SDS011;72428;41.978;21.464;2024-03-23T05:53:15;40.65;;;23.25;;
82705;SDS011;72428;41.978;21.464;2024-03-23T05:55:41;41.17;;;25.50;;
82705;SDS011;72428;41.978;21.464;2024-03-23T05:58:07;43.67;;;26.60;;
82705;SDS011;72428;41.978;21.464;2024-03-23T06:00:33;41.30;;;24.90;;
82705;SDS011;72428;41.978;21.464;2024-03-23T06:03:00;41.85;;;24.95;;
82705;SDS011;72428;41.978;21.464;2024-03-23T06:05:26;40.63;;;25.88;;
82705;SDS011;72428;41.978;21.464;2024-03-23T06:07:52;40.40;;;24.30;;
82705;SDS011;72428;41.978;21.464;2024-03-23T06:10:18;44.33;;;26.90;;
82705;SDS011;72428;41.978;21.464;2024-03-23T06:12:47;39.33;;;23.58;;
82705;SDS011;72428;41.978;21.464;2024-03-23T06:15:14;44.90;;;23.63;;
82705;SDS011;72428;41.978;21.464;2024-03-23T06:17:40;37.20;;;23.77;;
82705;SDS011;72428;41.978;21.464;2024-03-23T06:20:06;43.00;;;23.27;;
82705;SDS011;72428;41.978;21.464;2024-03-23T06:22:32;39.38;;;25.17;;
82705;SDS011;72428;41.978;21.464;2024-03-23T06:24:58;42.53;;;24.63;;
82705;SDS011;72428;41.978;21.464;2024-03-23T06:27:25;43.08;;;22.42;;
82705;SDS011;72428;41.978;21.464;2024-03-23T06:29:51;39.35;;;22.77;;
82705;SDS011;72428;41.978;21.464;2024-03-23T06:32:17;32.88;;;21.13;;
82705;SDS011;72428;41.978;21.464;2024-03-23T06:34:43;37.80;;;23.35;;
82705;SDS011;72428;41.978;21.464;2024-03-23T06:37:10;42.53;;;24.63;;
82705;SDS011;72428;41.978;21.464;2024-03-23T06:39:36;39.95;;;22.40;;
82705;SDS011;72428;41.978;21.464;2024-03-23T06:42:02;35.53;;;23.92;;
82705;SDS011;72428;41.978;21.464;2024-03-23T06:44:29;36.63;;;21.38;;
82705;SDS011;72428;41.978;21.464;2024-03-23T06:46:55;40.30;;;21.60;;
82705;SDS011;72428;41.978;21.464;2024-03-23T06:49:22;41.80;;;26.17;;
82705;SDS011;72428;41.978;21.464;2024-03-23T06:51:48;45.00;;;22.73;;
82705;SDS011;72428;41.978;21.464;2024-03-23T06:54:14;36.60;;;21.65;;
82705;SDS011;72428;41.978;21.464;2024-03-23T06:56:41;39.33;;;21.58;;
82705;SDS011;72428;41.978;21.464;2024-03-23T06:59:07;37.63;;;21.40;;
82705;SDS011;72428;41.978;21.464;2024-03-23T07:01:33;34.33;;;21.70;;
82705;SDS011;72428;41.978;21.464;2024-03-23T07:04:00;40.28;;;23.33;;
82705;SDS011;72428;41.978;21.464;2024-03-23T07:06:26;42.60;;;19.38;;
82705;SDS011;72428;41.978;21.464;2024-03-23T07:08:52;31.05;;;19.35;;
82705;SDS011;72428;41.978;21.464;2024-03-23T07:11:22;36.45;;;21.90;;
82705;SDS011;72428;41.978;21.464;2024-03-23T07:13:52;37.05;;;21.75;;
82705;SDS011;72428;41.978;21.464;2024-03-23T07:16:21;30.90;;;19.60;;
82705;SDS011;72428;41.978;21.464;2024-03-23T07:18:49;35.53;;;21.45;;
82705;SDS011;72428;41.978;21.464;2024-03-23T07:21:15;37.22;;;21.20;;
82705;SDS011;72428;41.978;21.464;2024-03-23T07:23:42;34.17;;;22.20;;
82705;SDS011;72428;41.978;21.464;2024-03-23T07:26:11;38.72;;;20.48;;
82705;SDS011;72428;41.978;21.464;2024-03-23T07:28:37;39.35;;;20.85;;
82705;SDS011;72428;41.978;21.464;2024-03-23T07:33:35;34.97;;;19.98;;
82705;SDS011;72428;41.978;21.464;2024-03-23T07:36:01;35.60;;;22.05;;
82705;SDS011;72428;41.978;21.464;2024-03-23T07:38:28;46.83;;;24.75;;
82705;SDS011;72428;41.978;21.464;2024-03-23T07:41:04;44.95;;;23.25;;
82705;SDS011;72428;41.978;21.464;2024-03-23T07:43:30;47.00;;;20.45;;
82705;SDS011;72428;41.978;21.464;2024-03-23T07:45:57;34.65;;;19.20;;
82705;SDS011;72428;41.978;21.464;2024-03-23T07:48:23;43.00;;;21.83;;
82705;SDS011;72428;41.978;21.464;2024-03-23T07:51:06;38.45;;;20.85;;
82705;SDS011;72428;41.978;21.464;2024-03-23T07:56:02;39.17;;;19.05;;
82705;SDS011;72428;41.978;21.464;2024-03-23T08:00:55;27.98;;;16.55;;
82705;SDS011;72428;41.978;21.464;2024-03-23T08:03:22;36.78;;;18.40;;
82705;SDS011;72428;41.978;21.464;2024-03-23T08:05:49;27.42;;;17.00;;
82705;SDS011;72428;41.978;21.464;2024-03-23T08:08:15;27.58;;;16.88;;
82705;SDS011;72428;41.978;21.464;2024-03-23T08:10:51;27.58;;;17.40;;
82705;SDS011;72428;41.978;21.464;2024-03-23T08:13:18;25.90;;;17.55;;
82705;SDS011;72428;41.978;21.464;2024-03-23T08:15:44;24.27;;;14.90;;
82705;SDS011;72428;41.978;21.464;2024-03-23T08:18:12;25.10;;;15.15;;
82705;SDS011;72428;41.978;21.464;2024-03-23T08:20:38;28.35;;;14.50;;
82705;SDS011;72428;41.978;21.464;2024-03-23T08:23:06;27.95;;;16.35;;
82705;SDS011;72428;41.978;21.464;2024-03-23T08:25:32;24.92;;;15.05;;
82705;SDS011;72428;41.978;21.464;2024-03-23T08:27:58;26.98;;;16.05;;
82705;SDS011;72428;41.978;21.464;2024-03-23T08:30:25;32.00;;;16.67;;
82705;SDS011;72428;41.978;21.464;2024-03-23T08:32:51;24.73;;;16.70;;
82705;SDS011;72428;41.978;21.464;2024-03-23T08:35:17;26.55;;;15.27;;
82705;SDS011;72428;41.978;21.464;2024-03-23T08:37:43;27.35;;;15.85;;
82705;SDS011;72428;41.978;21.464;2024-03-23T08:40:10;23.17;;;15.38;;
82705;SDS011;72428;41.978;21.464;2024-03-23T08:42:36;25.40;;;14.80;;
82705;SDS011;72428;41.978;21.464;2024-03-23T08:45:02;28.88;;;16.02;;
82705;SDS011;72428;41.978;21.464;2024-03-23T08:47:28;27.73;;;14.70;;
82705;SDS011;72428;41.978;21.464;2024-03-23T08:49:54;23.35;;;14.05;;
82705;SDS011;72428;41.978;21.464;2024-03-23T08:52:22;24.02;;;15.45;;
82705;SDS011;72428;41.978;21.464;2024-03-23T08:54:50;25.75;;;16.70;;
82705;SDS011;72428;41.978;21.464;2024-03-23T08:57:16;26.08;;;14.90;;
82705;SDS011;72428;41.978;21.464;2024-03-23T08:59:42;25.65;;;15.43;;
82705;SDS011;72428;41.978;21.464;2024-03-23T09:02:09;23.70;;;15.32;;
82705;SDS011;72428;41.978;21.464;2024-03-23T09:04:35;25.35;;;14.10;;
82705;SDS011;72428;41.978;21.464;2024-03-23T09:07:01;24.85;;;13.90;;
82705;SDS011;72428;41.978;21.464;2024-03-23T09:09:27;27.13;;;15.77;;
82705;SDS011;72428;41.978;21.464;2024-03-23T09:11:53;21.60;;;14.32;;
82705;SDS011;72428;41.978;21.464;2024-03-23T09:14:19;22.30;;;13.98;;
82705;SDS011;72428;41.978;21.464;2024-03-23T09:16:45;27.92;;;15.73;;
82705;SDS011;72428;41.978;21.464;2024-03-23T09:19:11;24.55;;;13.57;;
82705;SDS011;72428;41.978;21.464;2024-03-23T09:21:38;23.13;;;13.65;;
82705;SDS011;72428;41.978;21.464;2024-03-23T09:24:04;27.00;;;14.25;;
82705;SDS011;72428;41.978;21.464;2024-03-23T09:26:30;24.00;;;13.00;;
82705;SDS011;72428;41.978;21.464;2024-03-23T09:28:56;19.08;;;11.93;;
82705;SDS011;72428;41.978;21.464;2024-03-23T09:31:22;22.20;;;11.43;;
82705;SDS011;72428;41.978;21.464;2024-03-23T09:33:48;21.60;;;13.23;;
82705;SDS011;72428;41.978;21.464;2024-03-23T09:36:15;19.58;;;12.02;;
82705;SDS011;72428;41.978;21.464;2024-03-23T09:38:41;20.90;;;12.18;;
82705;SDS011;72428;41.978;21.464;2024-03-23T09:41:10;21.45;;;12.80;;
82705;SDS011;72428;41.978;21.464;2024-03-23T09:43:37;18.73;;;10.93;;
82705;SDS011;72428;41.978;21.464;2024-03-23T09:46:03;30.23;;;13.68;;
82705;SDS011;72428;41.978;21.464;2024-03-23T09:48:30;25.80;;;13.63;;
82705;SDS011;72428;41.978;21.464;2024-03-23T09:50:56;20.73;;;12.60;;
82705;SDS011;72428;41.978;21.464;2024-03-23T09:53:22;24.17;;;13.25;;
82705;SDS011;72428;41.978;21.464;2024-03-23T09:55:49;22.55;;;14.00;;
82705;SDS011;72428;41.978;21.464;2024-03-23T09:58:18;21.85;;;14.10;;
82705;SDS011;72428;41.978;21.464;2024-03-23T10:00:44;21.08;;;12.55;;
82705;SDS011;72428;41.978;21.464;2024-03-23T10:03:10;20.30;;;12.52;;
82705;SDS011;72428;41.978;21.464;2024-03-23T10:05:37;16.25;;;10.55;;
82705;SDS011;72428;41.978;21.464;2024-03-23T10:08:17;17.67;;;10.25;;
82705;SDS011;72428;41.978;21.464;2024-03-23T10:10:43;17.38;;;10.38;;
82705;SDS011;72428;41.978;21.464;2024-03-23T10:13:10;15.60;;;9.65;;
82705;SDS011;72428;41.978;21.464;2024-03-23T10:15:39;14.13;;;9.07;;
82705;SDS011;72428;41.978;21.464;2024-03-23T10:20:40;15.68;;;8.05;;
82705;SDS011;72428;41.978;21.464;2024-03-23T10:23:06;19.55;;;8.85;;
82705;SDS011;72428;41.978;21.464;2024-03-23T10:25:41;15.23;;;8.90;;
82705;SDS011;72428;41.978;21.464;2024-03-23T10:28:07;28.40;;;9.65;;
82705;SDS011;72428;41.978;21.464;2024-03-23T10:30:34;17.05;;;9.52;;
82705;SDS011;72428;41.978;21.464;2024-03-23T10:33:07;40.47;;;10.25;;
82705;SDS011;72428;41.978;21.464;2024-03-23T10:35:33;17.25;;;9.57;;
82705;SDS011;72428;41.978;21.464;2024-03-23T10:38:00;18.65;;;9.13;;
82705;SDS011;72428;41.978;21.464;2024-03-23T10:40:26;16.48;;;10.15;;
82705;SDS011;72428;41.978;21.464;2024-03-23T10:42:53;27.10;;;11.05;;
82705;SDS011;72428;41.978;21.464;2024-03-23T10:45:24;44.97;;;13.13;;
82705;SDS011;72428;41.978;21.464;2024-03-23T10:47:50;53.03;;;14.80;;
82705;SDS011;72428;41.978;21.464;2024-03-23T10:50:17;44.85;;;12.32;;
82705;SDS011;72428;41.978;21.464;2024-03-23T10:52:45;14.75;;;8.45;;
82705;SDS011;72428;41.978;21.464;2024-03-23T10:55:11;15.65;;;7.78;;
82705;SDS011;72428;41.978;21.464;2024-03-23T10:57:44;16.10;;;8.40;;
82705;SDS011;72428;41.978;21.464;2024-03-23T11:00:11;12.77;;;7.75;;
82705;SDS011;72428;41.978;21.464;2024-03-23T11:02:37;20.17;;;8.52;;
82705;SDS011;72428;41.978;21.464;2024-03-23T11:07:51;13.50;;;7.15;;
82705;SDS011;72428;41.978;21.464;2024-03-23T11:10:24;14.00;;;7.70;;
82705;SDS011;72428;41.978;21.464;2024-03-23T11:12:51;13.13;;;7.38;;
82705;SDS011;72428;41.978;21.464;2024-03-23T11:15:17;15.75;;;7.88;;
82705;SDS011;72428;41.978;21.464;2024-03-23T11:18:01;16.10;;;8.10;;
82705;SDS011;72428;41.978;21.464;2024-03-23T11:20:32;12.60;;;8.63;;
82705;SDS011;72428;41.978;21.464;2024-03-23T11:22:59;13.07;;;7.35;;
82705;SDS011;72428;41.978;21.464;2024-03-23T11:25:28;14.55;;;7.30;;
82705;SDS011;72428;41.978;21.464;2024-03-23T11:27:55;11.65;;;7.72;;
82705;SDS011;72428;41.978;21.464;2024-03-23T11:30:25;13.85;;;7.65;;
82705;SDS011;72428;41.978;21.464;2024-03-23T11:32:52;13.05;;;7.55;;
82705;SDS011;72428;41.978;21.464;2024-03-23T11:35:28;13.05;;;7.43;;
82705;SDS011;72428;41.978;21.464;2024-03-23T11:38:06;11.65;;;7.43;;
82705;SDS011;72428;41.978;21.464;2024-03-23T11:40:36;16.00;;;6.18;;
82705;SDS011;72428;41.978;21.464;2024-03-23T11:43:03;11.73;;;6.82;;
82705;SDS011;72428;41.978;21.464;2024-03-23T11:45:31;11.30;;;6.43;;
82705;SDS011;72428;41.978;21.464;2024-03-23T11:48:09;12.68;;;6.53;;
82705;SDS011;72428;41.978;21.464;2024-03-23T11:50:37;9.48;;;6.13;;
82705;SDS011;72428;41.978;21.464;2024-03-23T11:53:06;9.18;;;6.03;;
82705;SDS011;72428;41.978;21.464;2024-03-23T11:55:42;12.60;;;5.38;;
82705;SDS011;72428;41.978;21.464;2024-03-23T11:58:09;11.93;;;5.75;;
82705;SDS011;72428;41.978;21.464;2024-03-23T12:00:35;9.85;;;5.05;;
82705;SDS011;72428;41.978;21.464;2024-03-23T12:03:02;10.93;;;5.35;;
82705;SDS011;72428;41.978;21.464;2024-03-23T12:05:28;12.48;;;5.00;;
82705;SDS011;72428;41.978;21.464;2024-03-23T12:07:55;9.25;;;4.80;;
82705;SDS011;72428;41.978;21.464;2024-03-23T12:10:21;9.25;;;5.53;;
82705;SDS011;72428;41.978;21.464;2024-03-23T12:13:00;9.60;;;5.80;;
82705;SDS011;72428;41.978;21.464;2024-03-23T12:15:26;10.95;;;5.45;;
82705;SDS011;72428;41.978;21.464;2024-03-23T12:18:05;8.85;;;4.85;;
82705;SDS011;72428;41.978;21.464;2024-03-23T12:20:31;9.10;;;4.00;;
82705;SDS011;72428;41.978;21.464;2024-03-23T12:25:33;10.20;;;5.25;;
82705;SDS011;72428;41.978;21.464;2024-03-23T12:27:59;9.55;;;5.07;;
82705;SDS011;72428;41.978;21.464;2024-03-23T12:30:25;10.38;;;4.97;;
82705;SDS011;72428;41.978;21.464;2024-03-23T12:32:51;9.93;;;5.28;;
82705;SDS011;72428;41.978;21.464;2024-03-23T12:35:18;7.22;;;4.40;;
82705;SDS011;72428;41.978;21.464;2024-03-23T12:37:44;7.78;;;4.20;;
82705;SDS011;72428;41.978;21.464;2024-03-23T12:40:10;9.65;;;4.25;;
82705;SDS011;72428;41.978;21.464;2024-03-23T12:42:36;7.82;;;4.70;;
82705;SDS011;72428;41.978;21.464;2024-03-23T12:45:02;10.48;;;4.75;;
82705;SDS011;72428;41.978;21.464;2024-03-23T12:47:30;7.82;;;4.63;;
82705;SDS011;72428;41.978;21.464;2024-03-23T12:49:56;7.30;;;3.90;;
82705;SDS011;72428;41.978;21.464;2024-03-23T12:52:22;10.50;;;3.88;;
82705;SDS011;72428;41.978;21.464;2024-03-23T12:54:53;6.85;;;3.80;;
82705;SDS011;72428;41.978;21.464;2024-03-23T12:57:19;7.93;;;3.70;;
82705;SDS011;72428;41.978;21.464;2024-03-23T12:59:46;8.50;;;4.90;;
82705;SDS011;72428;41.978;21.464;2024-03-23T13:04:41;7.97;;;4.57;;
82705;SDS011;72428;41.978;21.464;2024-03-23T13:07:07;12.45;;;4.38;;
82705;SDS011;72428;41.978;21.464;2024-03-23T13:09:33;8.07;;;4.22;;
82705;SDS011;72428;41.978;21.464;2024-03-23T13:11:59;8.98;;;4.13;;
82705;SDS011;72428;41.978;21.464;2024-03-23T13:14:25;6.93;;;3.88;;
82705;SDS011;72428;41.978;21.464;2024-03-23T13:16:52;7.43;;;4.00;;
82705;SDS011;72428;41.978;21.464;2024-03-23T13:19:18;7.68;;;4.10;;
82705;SDS011;72428;41.978;21.464;2024-03-23T13:21:45;6.72;;;3.60;;
82705;SDS011;72428;41.978;21.464;2024-03-23T13:24:11;8.63;;;3.70;;
82705;SDS011;72428;41.978;21.464;2024-03-23T13:26:37;6.60;;;3.35;;
82705;SDS011;72428;41.978;21.464;2024-03-23T13:29:03;11.05;;;3.65;;
82705;SDS011;72428;41.978;21.464;2024-03-23T13:31:29;7.45;;;3.78;;
82705;SDS011;72428;41.978;21.464;2024-03-23T13:33:55;5.63;;;3.28;;
82705;SDS011;72428;41.978;21.464;2024-03-23T13:36:21;9.63;;;3.70;;
82705;SDS011;72428;41.978;21.464;2024-03-23T13:38:47;7.25;;;3.42;;
82705;SDS011;72428;41.978;21.464;2024-03-23T13:41:13;10.68;;;3.97;;
82705;SDS011;72428;41.978;21.464;2024-03-23T13:43:39;8.65;;;3.70;;
82705;SDS011;72428;41.978;21.464;2024-03-23T13:46:06;10.55;;;3.65;;
82705;SDS011;72428;41.978;21.464;2024-03-23T13:48:32;6.78;;;3.83;;
82705;SDS011;72428;41.978;21.464;2024-03-23T13:50:59;8.20;;;3.50;;
82705;SDS011;72428;41.978;21.464;2024-03-23T13:53:25;6.78;;;3.65;;
82705;SDS011;72428;41.978;21.464;2024-03-23T13:55:52;7.25;;;3.95;;
82705;SDS011;72428;41.978;21.464;2024-03-23T13:58:18;6.03;;;3.70;;
82705;SDS011;72428;41.978;21.464;2024-03-23T14:00:44;10.20;;;3.75;;
82705;SDS011;72428;41.978;21.464;2024-03-23T14:03:11;6.75;;;3.60;;
82705;SDS011;72428;41.978;21.464;2024-03-23T14:05:37;10.82;;;4.28;;
82705;SDS011;72428;41.978;21.464;2024-03-23T14:08:07;9.48;;;3.70;;
82705;SDS011;72428;41.978;21.464;2024-03-23T14:10:34;6.82;;;3.75;;
82705;SDS011;72428;41.978;21.464;2024-03-23T14:13:02;7.45;;;3.63;;
82705;SDS011;72428;41.978;21.464;2024-03-23T14:15:29;6.53;;;3.40;;
82705;SDS011;72428;41.978;21.464;2024-03-23T14:17:55;9.43;;;3.80;;
82705;SDS011;72428;41.978;21.464;2024-03-23T14:20:22;6.70;;;3.25;;
82705;SDS011;72428;41.978;21.464;2024-03-23T14:22:48;6.38;;;3.63;;
82705;SDS011;72428;41.978;21.464;2024-03-23T14:25:14;7.22;;;3.35;;
82705;SDS011;72428;41.978;21.464;2024-03-23T14:27:41;8.98;;;3.60;;
82705;SDS011;72428;41.978;21.464;2024-03-23T14:30:07;12.32;;;3.33;;
82705;SDS011;72428;41.978;21.464;2024-03-23T14:32:33;7.65;;;3.38;;
82705;SDS011;72428;41.978;21.464;2024-03-23T14:35:06;6.45;;;3.53;;
82705;SDS011;72428;41.978;21.464;2024-03-23T14:37:37;10.50;;;3.90;;
82705;SDS011;72428;41.978;21.464;2024-03-23T14:40:04;6.53;;;3.67;;
82705;SDS011;72428;41.978;21.464;2024-03-23T14:42:31;6.85;;;3.17;;
82705;SDS011;72428;41.978;21.464;2024-03-23T14:44:57;9.55;;;3.88;;
82705;SDS011;72428;41.978;21.464;2024-03-23T14:47:23;10.80;;;3.85;;
82705;SDS011;72428;41.978;21.464;2024-03-23T14:49:49;7.40;;;3.85;;
82705;SDS011;72428;41.978;21.464;2024-03-23T14:52:16;6.85;;;3.42;;
82705;SDS011;72428;41.978;21.464;2024-03-23T14:54:43;11.23;;;4.45;;
82705;SDS011;72428;41.978;21.464;2024-03-23T14:57:09;7.82;;;3.63;;
82705;SDS011;72428;41.978;21.464;2024-03-23T14:59:36;8.60;;;3.95;;
82705;SDS011;72428;41.978;21.464;2024-03-23T15:02:08;6.25;;;3.65;;
82705;SDS011;72428;41.978;21.464;2024-03-23T15:04:35;8.88;;;3.90;;
82705;SDS011;72428;41.978;21.464;2024-03-23T15:07:01;7.90;;;4.22;;
82705;SDS011;72428;41.978;21.464;2024-03-23T15:09:27;7.00;;;4.05;;
82705;SDS011;72428;41.978;21.464;2024-03-23T15:11:54;6.55;;;4.10;;
82705;SDS011;72428;41.978;21.464;2024-03-23T15:14:20;10.15;;;4.53;;
82705;SDS011;72428;41.978;21.464;2024-03-23T15:16:47;7.30;;;3.97;;
82705;SDS011;72428;41.978;21.464;2024-03-23T15:19:14;8.65;;;4.55;;
82705;SDS011;72428;41.978;21.464;2024-03-23T15:21:42;7.82;;;4.45;;
82705;SDS011;72428;41.978;21.464;2024-03-23T15:24:08;7.97;;;4.43;;
82705;SDS011;72428;41.978;21.464;2024-03-23T15:26:36;9.68;;;5.40;;